MUHG/HOG METAR and TAF weather

Enter ICAO airport designator
Station Type Date Time Source
MUHG METAR 2020/04/05 04:50 UTC NOAA

MUHG 050450Z 04006KT 9000 SKC 21/18 Q1015


Station Type Date Time Source
MUHG Decoded METAR 2020/04/05 04:50 UTC NOAA

Holguin Civ / Mil , Cuba (MUHG) 20-47N 076-19W
Apr 05, 2020 - 12:50 AM EDT / 2020.04.05 0450 UTC
Wind: from the NE (040 degrees) at 7 MPH (6 KT):0
Visibility: 5 mile(s):0
Sky conditions: clear
Temperature: 69 F (21 C)
Dew Point: 64 F (18 C)
Relative Humidity: 82%
Pressure (altimeter): 29.97 in. Hg (1015 hPa)
ob: MUHG 050450Z 04006KT 9000 SKC 21/18 Q1015
cycle: 5

Station Type Date Time Source
MUHG TAF 2020/04/05 06:03 UTC NOAA

TAF MUHG 050500Z 0506/0606 VRB03KT 9000 SCT020
BECMG 0515/0517 03008KT
BECMG 0601/0603 VRB03KT

Example: see airport list